createdAt,value
2018-09-05T00:00:14.586Z,26.60
2018-09-05T00:02:44.206Z,26.80
2018-09-05T00:05:13.722Z,27.40
2018-09-05T00:07:43.354Z,26.27
2018-09-05T00:10:12.867Z,28.33
2018-09-05T00:12:42.396Z,26.53
2018-09-05T00:15:12.974Z,28.93
2018-09-05T00:17:42.476Z,28.13
2018-09-05T00:20:12.028Z,26.93
2018-09-05T00:22:41.597Z,23.83
2018-09-05T00:25:11.200Z,31.77
2018-09-05T00:27:40.707Z,26.83
2018-09-05T00:30:10.553Z,27.60
2018-09-05T00:32:40.126Z,28.63
2018-09-05T00:35:09.695Z,26.97
2018-09-05T00:37:39.311Z,30.50
2018-09-05T00:40:08.832Z,29.40
2018-09-05T00:42:38.348Z,28.87
2018-09-05T00:45:07.949Z,27.30
2018-09-05T00:47:37.383Z,27.83
2018-09-05T00:50:07.000Z,28.40
2018-09-05T00:52:36.513Z,26.63
2018-09-05T00:55:06.018Z,28.53
2018-09-05T00:57:35.514Z,28.50
2018-09-05T01:00:05.358Z,27.63
2018-09-05T01:02:34.936Z,29.97
2018-09-05T01:05:04.514Z,29.37
2018-09-05T01:07:34.127Z,27.63
2018-09-05T01:10:03.665Z,26.77
2018-09-05T01:12:33.254Z,25.60
2018-09-05T01:15:02.851Z,26.13
2018-09-05T01:17:33.002Z,24.60
2018-09-05T01:20:02.489Z,26.43
2018-09-05T01:22:32.110Z,24.83
2018-09-05T01:25:02.669Z,25.37
2018-09-05T01:27:32.219Z,28.27
2018-09-05T01:30:01.793Z,25.43
2018-09-05T01:32:31.333Z,28.47
2018-09-05T01:35:00.964Z,25.47
2018-09-05T01:37:30.616Z,30.73
2018-09-05T01:40:00.041Z,25.30
2018-09-05T01:42:29.672Z,27.00
2018-09-05T01:45:00.223Z,24.03
2018-09-05T01:47:29.755Z,24.67
2018-09-05T01:49:59.309Z,22.23
2018-09-05T01:52:29.107Z,20.77
2018-09-05T01:54:58.802Z,21.77
2018-09-05T01:57:28.430Z,21.00
2018-09-05T01:59:57.890Z,22.90
2018-09-05T02:02:27.400Z,22.73
2018-09-05T02:04:57.039Z,21.77
2018-09-05T02:07:27.295Z,20.87
2018-09-05T02:09:56.857Z,31.20
2018-09-05T02:12:26.407Z,22.27
2018-09-05T02:14:56.694Z,20.90
2018-09-05T02:17:26.230Z,26.03
2018-09-05T02:19:56.786Z,21.80
2018-09-05T02:22:27.512Z,20.40
2018-09-05T02:24:58.058Z,21.37
2018-09-05T02:27:27.828Z,20.30
2018-09-05T02:29:57.382Z,19.07
2018-09-05T02:32:26.941Z,20.87
2018-09-05T02:34:56.453Z,24.43
2018-09-05T02:37:25.925Z,18.07
2018-09-05T02:39:55.564Z,17.63
2018-09-05T02:42:25.090Z,20.07
2018-09-05T02:44:55.593Z,14.37
2018-09-05T02:47:25.231Z,15.80
2018-09-05T02:49:55.650Z,14.10
2018-09-05T02:52:25.181Z,13.80
2018-09-05T02:54:55.421Z,13.73
2018-09-05T02:57:25.008Z,15.83
2018-09-05T02:59:54.556Z,11.93
2018-09-05T03:02:24.126Z,13.57
2018-09-05T03:04:54.342Z,14.07
2018-09-05T03:07:23.994Z,12.77
2018-09-05T03:09:53.438Z,12.00
2018-09-05T03:12:24.003Z,14.83
2018-09-05T03:14:53.631Z,13.33
2018-09-05T03:17:23.241Z,16.17
2018-09-05T03:19:52.963Z,15.27
2018-09-05T03:22:22.588Z,16.57
2018-09-05T03:24:53.614Z,15.13
2018-09-05T03:27:23.325Z,15.70
2018-09-05T03:29:52.937Z,14.93
2018-09-05T03:32:22.692Z,16.63
2018-09-05T03:34:53.139Z,16.97
2018-09-05T03:37:23.623Z,14.17
2018-09-05T03:39:53.218Z,16.93
2018-09-05T03:42:22.806Z,18.23
2018-09-05T03:44:52.318Z,18.87
2018-09-05T03:47:22.184Z,20.47
2018-09-05T03:49:52.772Z,18.90
2018-09-05T03:52:22.339Z,22.63
2018-09-05T03:54:51.848Z,18.57
2018-09-05T03:57:21.443Z,20.23
2018-09-05T03:59:50.989Z,21.03
2018-09-05T04:02:21.691Z,20.03
2018-09-05T04:04:51.208Z,17.30
2018-09-05T04:07:20.792Z,18.60
2018-09-05T04:09:50.390Z,17.07
2018-09-05T04:12:20.171Z,17.40
2018-09-05T04:14:49.803Z,18.73
2018-09-05T04:17:19.511Z,17.57
2018-09-05T04:19:49.150Z,18.03
2018-09-05T04:22:18.749Z,19.87
2018-09-05T04:24:48.288Z,23.37
2018-09-05T04:27:17.895Z,20.13
2018-09-05T04:29:47.687Z,22.63
2018-09-05T04:33:02.052Z,22.87
2018-09-05T04:35:31.585Z,19.63
2018-09-05T04:38:01.146Z,19.97
2018-09-05T04:40:30.832Z,18.07
2018-09-05T04:43:00.394Z,15.57
2018-09-05T04:45:30.396Z,17.17
2018-09-05T04:48:00.973Z,16.33
2018-09-05T04:50:30.554Z,13.57
2018-09-05T04:53:00.023Z,17.67
2018-09-05T04:55:30.924Z,17.60
2018-09-05T04:58:01.379Z,18.10
2018-09-05T05:00:31.926Z,19.03
2018-09-05T05:03:01.604Z,20.90
2018-09-05T05:05:33.152Z,19.73
2018-09-05T05:08:03.589Z,18.10
2018-09-05T05:10:33.167Z,18.57
2018-09-05T05:13:03.596Z,15.80
2018-09-05T05:15:33.269Z,18.90
2018-09-05T05:18:02.852Z,17.57
2018-09-05T05:20:32.414Z,16.20
2018-09-05T05:23:03.178Z,21.23
2018-09-05T05:25:32.674Z,19.77
2018-09-05T05:28:03.264Z,18.87
2018-09-05T05:30:32.760Z,18.17
2018-09-05T05:33:02.248Z,23.20
2018-09-05T05:35:31.802Z,20.10
2018-09-05T05:38:01.412Z,20.70
2018-09-05T05:40:31.018Z,20.90
2018-09-05T05:43:00.490Z,21.43
2018-09-05T05:45:30.143Z,19.17
2018-09-05T05:47:59.697Z,18.20
2018-09-05T05:50:29.261Z,18.33
2018-09-05T05:52:58.823Z,16.43
2018-09-05T05:55:28.428Z,15.73
2018-09-05T05:57:57.996Z,14.17
2018-09-05T06:00:27.563Z,15.90
2018-09-05T06:02:58.143Z,18.33
2018-09-05T06:05:27.624Z,18.23
2018-09-05T06:07:57.070Z,22.17
2018-09-05T06:10:27.581Z,17.17
2018-09-05T06:12:59.041Z,18.33
2018-09-05T06:15:29.049Z,21.10
2018-09-05T06:17:58.564Z,23.07
2018-09-05T06:20:27.986Z,28.80
2018-09-05T06:22:57.549Z,24.67
2018-09-05T06:25:29.054Z,21.77
2018-09-05T06:28:02.503Z,20.27
2018-09-05T06:30:31.949Z,29.40
2018-09-05T06:33:01.604Z,29.47
2018-09-05T06:35:31.827Z,16.20
2018-09-05T06:38:01.306Z,25.33
2018-09-05T06:40:30.900Z,25.17
2018-09-05T06:43:00.468Z,23.17
2018-09-05T06:45:30.114Z,22.60
2018-09-05T06:47:59.597Z,20.33
2018-09-05T06:50:29.313Z,18.77
2018-09-05T06:52:58.739Z,20.23
2018-09-05T06:55:28.224Z,21.00
2018-09-05T06:57:58.790Z,21.60
2018-09-05T07:00:28.352Z,19.60
2018-09-05T07:02:58.841Z,20.17
2018-09-05T07:05:29.702Z,24.57
2018-09-05T07:07:59.263Z,24.17
2018-09-05T07:10:29.049Z,28.27
2018-09-05T07:12:59.295Z,24.57
2018-09-05T07:15:28.895Z,18.97
2018-09-05T07:17:58.398Z,18.13
2018-09-05T07:20:27.864Z,18.13
2018-09-05T07:22:58.287Z,20.17
2018-09-05T07:25:28.452Z,20.90
2018-09-05T07:27:57.942Z,19.47
2018-09-05T07:30:27.542Z,21.73
2018-09-05T07:32:57.945Z,19.27
2018-09-05T07:35:27.553Z,19.93
2018-09-05T07:37:57.012Z,22.10
2018-09-05T07:40:26.583Z,23.77
2018-09-05T07:42:56.190Z,23.47
2018-09-05T07:45:25.766Z,21.70
2018-09-05T07:47:55.253Z,23.33
2018-09-05T07:50:24.905Z,23.83
2018-09-05T07:52:54.632Z,20.00
2018-09-05T07:55:25.155Z,22.27
2018-09-05T07:57:54.778Z,20.07
2018-09-05T08:00:25.293Z,25.70
2018-09-05T08:02:54.877Z,22.33
2018-09-05T08:05:25.433Z,30.77
2018-09-05T08:07:54.904Z,28.37
2018-09-05T08:10:24.466Z,23.10
2018-09-05T08:12:55.067Z,30.27
2018-09-05T08:15:27.032Z,25.80
2018-09-05T08:17:57.666Z,29.30
2018-09-05T08:20:27.227Z,26.30
2018-09-05T08:22:57.005Z,25.47
2018-09-05T08:25:27.252Z,27.53
2018-09-05T08:27:56.768Z,26.70
2018-09-05T08:30:26.354Z,26.73
2018-09-05T08:32:56.522Z,25.83
2018-09-05T08:35:26.166Z,24.97
2018-09-05T08:37:55.905Z,32.03
2018-09-05T08:40:25.290Z,26.70
2018-09-05T08:42:54.821Z,30.77
2018-09-05T08:45:24.643Z,25.47
2018-09-05T08:47:54.188Z,23.90
2018-09-05T08:50:24.607Z,26.33
2018-09-05T08:52:54.496Z,31.40
2018-09-05T08:55:24.012Z,26.97
2018-09-05T08:57:53.578Z,26.07
2018-09-05T09:00:23.147Z,25.10
2018-09-05T09:02:52.727Z,27.47
2018-09-05T09:05:22.279Z,24.77
2018-09-05T09:07:52.770Z,27.33
2018-09-05T09:10:22.422Z,28.33
2018-09-05T09:12:52.167Z,25.20
2018-09-05T09:15:24.807Z,27.63
2018-09-05T09:17:54.347Z,24.83
2018-09-05T09:20:23.948Z,27.20
2018-09-05T09:22:53.526Z,25.33
2018-09-05T09:25:23.166Z,30.93
2018-09-05T09:27:54.363Z,28.60
2018-09-05T09:30:23.921Z,27.47
2018-09-05T09:32:54.407Z,28.00
2018-09-05T09:35:23.987Z,26.40
2018-09-05T09:37:54.193Z,32.70
2018-09-05T09:40:24.690Z,26.27
2018-09-05T09:42:55.190Z,30.20
2018-09-05T09:45:24.787Z,28.27
2018-09-05T09:47:54.362Z,28.60
2018-09-05T09:50:23.892Z,28.93
2018-09-05T09:52:55.980Z,29.10
2018-09-05T09:55:25.563Z,31.07
2018-09-05T09:57:55.073Z,29.40
2018-09-05T10:00:29.837Z,31.97
2018-09-05T10:03:04.638Z,33.90
2018-09-05T10:05:39.426Z,29.47
2018-09-05T10:08:10.396Z,33.23
2018-09-05T10:10:45.274Z,28.67
2018-09-05T10:13:20.009Z,30.47
2018-09-05T10:15:55.779Z,31.73
2018-09-05T10:18:26.413Z,33.20
2018-09-05T10:20:56.564Z,35.60
2018-09-05T10:23:26.384Z,32.07
2018-09-05T10:25:55.965Z,35.40
2018-09-05T10:28:25.464Z,32.23
2018-09-05T10:30:54.982Z,29.50
2018-09-05T10:33:24.557Z,38.03
2018-09-05T10:35:54.082Z,32.63
2018-09-05T10:38:23.597Z,34.07
2018-09-05T10:40:53.207Z,35.47
2018-09-05T10:43:25.925Z,32.87
2018-09-05T10:45:55.518Z,31.87
2018-09-05T10:48:25.206Z,31.63
2018-09-05T10:50:54.959Z,31.57
2018-09-05T10:53:25.375Z,33.40
2018-09-05T10:55:54.882Z,35.87
2018-09-05T10:58:25.989Z,34.30
2018-09-05T11:00:56.942Z,30.40
2018-09-05T11:03:26.418Z,35.63
2018-09-05T11:05:56.188Z,36.40
2018-09-05T11:08:25.662Z,32.37
2018-09-05T11:10:55.545Z,32.73
2018-09-05T11:13:24.917Z,31.20
2018-09-05T11:15:54.437Z,31.03
2018-09-05T11:18:23.975Z,29.60
2018-09-05T11:20:53.483Z,29.87
2018-09-05T11:23:23.455Z,33.63
2018-09-05T11:25:53.024Z,31.20
2018-09-05T11:28:22.676Z,29.67
2018-09-05T11:30:52.204Z,29.93
2018-09-05T11:33:21.915Z,29.57
2018-09-05T11:35:51.507Z,29.20
2018-09-05T11:38:21.219Z,29.83
2018-09-05T11:40:50.745Z,27.17
2018-09-05T11:43:20.313Z,25.83
2018-09-05T11:45:49.852Z,26.50
2018-09-05T11:48:19.308Z,31.00
2018-09-05T11:50:49.323Z,20.47
2018-09-05T11:53:19.826Z,21.50
2018-09-05T11:55:49.334Z,28.37
2018-09-05T11:58:18.756Z,21.50
2018-09-05T12:00:48.269Z,21.37
2018-09-05T12:03:19.843Z,20.27
2018-09-05T12:05:49.356Z,19.33
2018-09-05T12:08:20.088Z,22.23
2018-09-05T12:10:49.610Z,21.13
2018-09-05T12:13:21.194Z,19.73
2018-09-05T12:15:50.971Z,19.77
2018-09-05T12:18:20.561Z,20.10
2018-09-05T12:20:50.037Z,19.70
2018-09-05T12:23:19.646Z,18.70
2018-09-05T12:25:49.214Z,19.50
2018-09-05T12:28:19.720Z,18.67
2018-09-05T12:30:49.269Z,17.77
2018-09-05T12:33:18.797Z,19.20
2018-09-05T12:35:48.266Z,17.53
2018-09-05T12:38:19.984Z,15.20
2018-09-05T12:40:49.421Z,17.03
2018-09-05T12:43:18.963Z,25.27
2018-09-05T12:45:48.550Z,14.37
2018-09-05T12:48:18.048Z,14.83
2018-09-05T12:50:47.481Z,14.90
2018-09-05T12:53:17.662Z,14.23
2018-09-05T12:55:47.373Z,13.67
2018-09-05T12:58:16.918Z,14.40
2018-09-05T13:00:46.593Z,13.43
2018-09-05T13:03:17.230Z,11.63
2018-09-05T13:05:46.661Z,12.27
2018-09-05T13:08:16.084Z,10.53
2018-09-05T13:10:45.615Z,11.57
2018-09-05T13:13:18.470Z,10.60
2018-09-05T13:15:50.970Z,9.40
2018-09-05T13:18:20.482Z,9.03
2018-09-05T13:20:49.984Z,8.17
2018-09-05T13:23:19.623Z,7.73
2018-09-05T13:25:49.048Z,7.20
2018-09-05T13:28:19.455Z,6.90
2018-09-05T13:30:48.948Z,8.00
2018-09-05T13:33:18.416Z,7.80
2018-09-05T13:35:48.008Z,8.97
2018-09-05T13:38:17.572Z,9.60
2018-09-05T13:40:47.188Z,7.70
2018-09-05T13:43:17.642Z,7.47
2018-09-05T13:45:47.128Z,9.23
2018-09-05T13:48:16.637Z,7.10
2018-09-05T13:50:46.282Z,6.43
2018-09-05T13:53:15.786Z,5.70
2018-09-05T13:55:45.405Z,5.17
2018-09-05T13:58:14.906Z,4.90
2018-09-05T14:00:44.405Z,7.70
2018-09-05T14:03:16.191Z,4.70
2018-09-05T14:05:45.925Z,4.93
2018-09-05T14:08:15.682Z,4.87
2018-09-05T14:10:46.280Z,5.47
2018-09-05T14:13:15.837Z,6.03
2018-09-05T14:15:47.366Z,5.60
2018-09-05T14:18:16.903Z,5.40
2018-09-05T14:20:46.429Z,6.83
2018-09-05T14:23:15.938Z,4.67
2018-09-05T14:25:45.459Z,5.37
2018-09-05T14:28:14.972Z,4.70
2018-09-05T14:30:44.500Z,4.87
2018-09-05T14:33:15.188Z,5.90
2018-09-05T14:35:44.734Z,7.23
2018-09-05T14:38:14.360Z,4.13
2018-09-05T14:40:43.824Z,5.93
2018-09-05T14:43:13.513Z,4.83
2018-09-05T14:45:43.915Z,4.23
2018-09-05T14:48:13.386Z,4.33
2018-09-05T14:50:43.832Z,4.13
2018-09-05T14:53:14.488Z,4.00
2018-09-05T14:55:44.019Z,3.97
2018-09-05T14:58:13.463Z,6.30
2018-09-05T15:00:43.099Z,6.73
2018-09-05T15:03:12.731Z,5.13
2018-09-05T15:05:42.311Z,3.03
2018-09-05T15:08:11.806Z,4.20
2018-09-05T15:10:41.843Z,3.53
2018-09-05T15:13:13.324Z,6.23
2018-09-05T15:15:42.851Z,4.73
2018-09-05T15:18:12.468Z,3.37
2018-09-05T15:20:41.993Z,3.40
2018-09-05T15:23:11.911Z,4.07
2018-09-05T15:25:41.439Z,3.53
2018-09-05T15:28:11.250Z,4.67
2018-09-05T15:30:40.743Z,3.30
2018-09-05T15:33:11.180Z,3.40
2018-09-05T15:35:41.814Z,2.90
2018-09-05T15:38:12.323Z,3.50
2018-09-05T15:40:41.804Z,3.27
2018-09-05T15:43:11.287Z,3.77
2018-09-05T15:45:40.761Z,3.63
2018-09-05T15:48:10.467Z,5.43
2018-09-05T15:50:41.713Z,3.80
2018-09-05T15:53:12.313Z,3.43
2018-09-05T15:55:41.793Z,4.83
2018-09-05T15:58:11.288Z,3.40
2018-09-05T16:00:42.900Z,4.87
2018-09-05T16:03:12.493Z,3.40
2018-09-05T16:05:42.991Z,4.03
2018-09-05T16:08:14.678Z,4.43
2018-09-05T16:10:44.318Z,3.27
2018-09-05T16:13:13.875Z,4.07
2018-09-05T16:15:43.558Z,4.97
2018-09-05T16:18:13.077Z,3.97
2018-09-05T16:20:42.634Z,3.60
2018-09-05T16:23:12.424Z,3.63
2018-09-05T16:25:42.855Z,3.67
2018-09-05T16:28:13.328Z,4.07
2018-09-05T16:30:42.980Z,4.00
2018-09-05T16:33:14.492Z,3.67
2018-09-05T16:35:44.079Z,4.47
2018-09-05T16:38:13.661Z,6.20
2018-09-05T16:40:43.144Z,7.13
2018-09-05T16:43:12.590Z,4.97
2018-09-05T16:45:42.062Z,5.50
2018-09-05T16:48:11.504Z,3.50
2018-09-05T16:50:41.038Z,6.70
2018-09-05T16:53:10.610Z,3.63
2018-09-05T16:55:41.095Z,4.00
2018-09-05T16:58:10.564Z,7.10
2018-09-05T17:00:40.006Z,6.27
2018-09-05T17:03:09.731Z,7.27
2018-09-05T17:05:39.355Z,3.47
2018-09-05T17:08:09.889Z,6.37
2018-09-05T17:10:40.586Z,4.83
2018-09-05T17:13:10.059Z,5.47
2018-09-05T17:15:39.722Z,11.77
2018-09-05T17:18:09.289Z,7.47
2018-09-05T17:20:39.782Z,5.97
2018-09-05T17:23:09.702Z,4.10
2018-09-05T17:25:39.243Z,5.63
2018-09-05T17:28:09.435Z,3.77
2018-09-05T17:30:39.037Z,3.37
2018-09-05T17:33:09.219Z,8.70
2018-09-05T17:35:39.091Z,4.90
2018-09-05T17:38:08.550Z,5.23
2018-09-05T17:40:37.984Z,6.20
2018-09-05T17:43:07.480Z,5.70
2018-09-05T17:45:37.004Z,3.90
2018-09-05T17:48:06.791Z,5.53
2018-09-05T17:50:36.432Z,3.10
2018-09-05T17:53:06.089Z,9.13
2018-09-05T17:55:35.647Z,5.30
2018-09-05T17:58:06.279Z,2.43
2018-09-05T18:00:41.530Z,5.70
2018-09-05T18:03:11.206Z,4.37
2018-09-05T18:05:40.650Z,3.00
2018-09-05T18:08:10.166Z,4.10
2018-09-05T18:10:39.679Z,5.13
2018-09-05T18:13:10.097Z,3.30
2018-09-05T18:15:39.621Z,2.83
2018-09-05T18:18:09.513Z,6.87
2018-09-05T18:20:39.107Z,3.77
2018-09-05T18:23:08.872Z,3.33
2018-09-05T18:25:38.405Z,2.70
2018-09-05T18:28:08.982Z,5.77
2018-09-05T18:30:39.259Z,3.13
2018-09-05T18:33:08.808Z,3.77
2018-09-05T18:35:38.339Z,5.83
2018-09-05T18:38:08.013Z,3.33
2018-09-05T18:40:37.628Z,3.77
2018-09-05T18:43:07.154Z,3.33
2018-09-05T18:45:36.686Z,3.00
2018-09-05T18:48:07.332Z,3.30
2018-09-05T18:50:37.956Z,3.20
2018-09-05T18:53:10.337Z,4.50
2018-09-05T18:55:41.184Z,3.33
2018-09-05T18:58:10.705Z,5.03
2018-09-05T19:00:40.897Z,3.30
2018-09-05T19:03:10.784Z,5.27
2018-09-05T19:05:40.288Z,4.40
2018-09-05T19:08:10.027Z,5.90
2018-09-05T19:10:41.299Z,3.17
2018-09-05T19:13:10.787Z,3.33
2018-09-05T19:15:41.252Z,2.93
2018-09-05T19:18:15.193Z,5.00
2018-09-05T19:20:44.665Z,3.30
2018-09-05T19:23:14.118Z,6.77
2018-09-05T19:25:43.758Z,3.77
2018-09-05T19:28:13.885Z,4.97
2018-09-05T19:30:43.375Z,4.27
2018-09-05T19:33:12.812Z,3.87
2018-09-05T19:35:42.283Z,6.50
2018-09-05T19:38:11.853Z,5.43
2018-09-05T19:40:42.739Z,4.70
2018-09-05T19:43:12.205Z,6.03
2018-09-05T19:45:43.641Z,7.30
2018-09-05T19:48:14.156Z,4.30
2018-09-05T19:50:43.666Z,4.70
2018-09-05T19:53:13.441Z,4.20
2018-09-05T19:55:43.933Z,6.90
2018-09-05T19:58:13.448Z,4.37
2018-09-05T20:00:45.036Z,5.30
2018-09-05T20:03:14.627Z,4.57
2018-09-05T20:05:44.096Z,7.57
2018-09-05T20:08:13.698Z,4.63
2018-09-05T20:10:43.124Z,5.43
2018-09-05T20:13:12.671Z,5.27
2018-09-05T20:15:42.343Z,5.87
2018-09-05T20:18:11.907Z,5.53
2018-09-05T20:20:42.490Z,4.53
2018-09-05T20:23:11.981Z,4.63
2018-09-05T20:25:41.571Z,9.03
2018-09-05T20:28:11.053Z,5.43
2018-09-05T20:30:40.523Z,4.87
2018-09-05T20:33:10.172Z,5.63
2018-09-05T20:35:39.613Z,5.17
2018-09-05T20:38:09.970Z,8.33
2018-09-05T20:40:40.416Z,5.57
2018-09-05T20:43:09.911Z,5.80
2018-09-05T20:45:39.414Z,5.20
2018-09-05T20:48:09.009Z,5.30
2018-09-05T20:50:38.545Z,6.07
2018-09-05T20:53:08.824Z,5.77
2018-09-05T20:55:38.272Z,5.37
2018-09-05T20:58:07.763Z,5.30
2018-09-05T21:00:37.230Z,5.57
2018-09-05T21:03:07.028Z,5.50
2018-09-05T21:05:36.911Z,6.47
2018-09-05T21:08:07.142Z,5.10
2018-09-05T21:10:36.577Z,7.50
2018-09-05T21:13:06.711Z,6.23
2018-09-05T21:15:36.341Z,6.80
2018-09-05T21:18:05.987Z,7.73
2018-09-05T21:20:35.527Z,9.97
2018-09-05T21:23:05.864Z,7.83
2018-09-05T21:25:35.320Z,6.30
2018-09-05T21:28:04.866Z,6.47
2018-09-05T21:30:34.435Z,5.90
2018-09-05T21:33:03.916Z,6.17
2018-09-05T21:35:33.816Z,8.80
2018-09-05T21:38:04.335Z,7.53
2018-09-05T21:40:34.883Z,8.10
2018-09-05T21:43:04.412Z,7.47
2018-09-05T21:45:34.912Z,9.77
2018-09-05T21:48:04.407Z,10.37
2018-09-05T21:50:33.957Z,7.50
2018-09-05T21:53:03.992Z,11.73
2018-09-05T21:55:34.333Z,9.20
2018-09-05T21:58:03.772Z,7.40
2018-09-05T22:00:33.317Z,8.30
2018-09-05T22:03:02.807Z,7.70
2018-09-05T22:05:32.379Z,7.50
2018-09-05T22:08:01.928Z,8.00
2018-09-05T22:10:31.526Z,8.93
2018-09-05T22:13:01.402Z,8.33
2018-09-05T22:15:35.283Z,7.90
2018-09-05T22:18:04.867Z,8.07
2018-09-05T22:20:34.494Z,8.77
2018-09-05T22:23:05.052Z,10.97
2018-09-05T22:25:34.572Z,9.63
2018-09-05T22:28:04.091Z,8.13
2018-09-05T22:30:35.779Z,8.67
2018-09-05T22:33:06.314Z,9.10
2018-09-05T22:35:36.955Z,7.83
2018-09-05T22:38:06.463Z,8.67
2018-09-05T22:40:41.305Z,8.73
2018-09-05T22:43:21.791Z,9.73
2018-09-05T22:46:02.506Z,8.83
2018-09-05T22:50:54.589Z,10.03
2018-09-05T22:53:54.514Z,8.17
2018-09-05T22:56:55.345Z,12.50
2018-09-05T22:59:43.116Z,8.13
2018-09-05T23:04:30.721Z,13.13
2018-09-05T23:09:09.067Z,9.37
2018-09-05T23:11:49.910Z,9.83
2018-09-05T23:14:31.289Z,11.73
2018-09-05T23:19:26.791Z,9.83
2018-09-05T23:21:56.349Z,13.13
2018-09-05T23:24:26.112Z,11.13
2018-09-05T23:26:55.757Z,9.73
2018-09-05T23:29:25.296Z,10.30
2018-09-05T23:31:54.780Z,9.83
2018-09-05T23:34:24.382Z,10.23
2018-09-05T23:36:53.890Z,12.03
2018-09-05T23:39:23.447Z,10.40
2018-09-05T23:41:52.985Z,9.30
2018-09-05T23:44:22.857Z,10.00
2018-09-05T23:46:52.521Z,11.60
2018-09-05T23:49:22.304Z,9.13
2018-09-05T23:51:52.123Z,9.77
2018-09-05T23:54:21.736Z,10.73
2018-09-05T23:56:51.491Z,9.53
2018-09-05T23:59:21.146Z,9.33
